sensor_id;sensor_type;location;lat;lon;timestamp;P1;P2;P0
79141;PMS5003;68550;-26.480;29.234;2023-04-24T00:05:45;12;12;
79141;PMS5003;68550;-26.480;29.234;2023-04-24T00:08:10;14;14;
79141;PMS5003;68550;-26.480;29.234;2023-04-24T00:10:36;14;14;
79141;PMS5003;68550;-26.480;29.234;2023-04-24T00:13:01;12;11;
79141;PMS5003;68550;-26.480;29.234;2023-04-24T00:15:27;15;14;
79141;PMS5003;68550;-26.480;29.234;2023-04-24T00:17:52;12;10;
79141;PMS5003;68550;-26.480;29.234;2023-04-24T00:20:17;13;12;
79141;PMS5003;68550;-26.480;29.234;2023-04-24T00:22:43;13;12;
79141;PMS5003;68550;-26.480;29.234;2023-04-24T00:34:49;12;12;
79141;PMS5003;68550;-26.480;29.234;2023-04-24T00:37:15;11;10;
79141;PMS5003;68550;-26.480;29.234;2023-04-24T00:44:35;10;9;
79141;PMS5003;68550;-26.480;29.234;2023-04-24T00:46:56;9;9;
79141;PMS5003;68550;-26.480;29.234;2023-04-24T00:49:22;9;8;
79141;PMS5003;68550;-26.480;29.234;2023-04-24T00:51:49;11;10;
79141;PMS5003;68550;-26.480;29.234;2023-04-24T00:54:13;9;8;
79141;PMS5003;68550;-26.480;29.234;2023-04-24T00:56:38;11;10;
79141;PMS5003;68550;-26.480;29.234;2023-04-24T01:06:00;11;11;
79141;PMS5003;68550;-26.480;29.234;2023-04-24T01:08:26;7;7;
79141;PMS5003;68550;-26.480;29.234;2023-04-24T01:10:51;8;8;
79141;PMS5003;68550;-26.480;29.234;2023-04-24T01:13:16;7;7;
79141;PMS5003;68550;-26.480;29.234;2023-04-24T01:15:42;10;9;
79141;PMS5003;68550;-26.480;29.234;2023-04-24T01:18:07;8;8;
79141;PMS5003;68550;-26.480;29.234;2023-04-24T01:20:35;8;8;
79141;PMS5003;68550;-26.480;29.234;2023-04-24T01:22:58;7;7;
79141;PMS5003;68550;-26.480;29.234;2023-04-24T01:25:23;8;8;
79141;PMS5003;68550;-26.480;29.234;2023-04-24T01:27:49;8;8;
79141;PMS5003;68550;-26.480;29.234;2023-04-24T01:30:14;7;7;
79141;PMS5003;68550;-26.480;29.234;2023-04-24T01:32:42;6;6;
79141;PMS5003;68550;-26.480;29.234;2023-04-24T01:35:06;6;6;
79141;PMS5003;68550;-26.480;29.234;2023-04-24T01:37:31;6;6;
79141;PMS5003;68550;-26.480;29.234;2023-04-24T01:39:56;6;6;
79141;PMS5003;68550;-26.480;29.234;2023-04-24T01:42:21;6;6;
79141;PMS5003;68550;-26.480;29.234;2023-04-24T01:44:47;6;6;
79141;PMS5003;68550;-26.480;29.234;2023-04-24T01:47:12;6;6;
79141;PMS5003;68550;-26.480;29.234;2023-04-24T01:49:38;5;5;
79141;PMS5003;68550;-26.480;29.234;2023-04-24T01:52:03;9;8;
79141;PMS5003;68550;-26.480;29.234;2023-04-24T01:54:28;5;5;
79141;PMS5003;68550;-26.480;29.234;2023-04-24T01:56:54;7;7;
79141;PMS5003;68550;-26.480;29.234;2023-04-24T01:59:19;7;6;
79141;PMS5003;68550;-26.480;29.234;2023-04-24T02:01:45;6;6;
79141;PMS5003;68550;-26.480;29.234;2023-04-24T02:04:10;7;6;
79141;PMS5003;68550;-26.480;29.234;2023-04-24T02:06:36;5;5;
79141;PMS5003;68550;-26.480;29.234;2023-04-24T02:09:01;6;6;
79141;PMS5003;68550;-26.480;29.234;2023-04-24T02:11:27;7;7;
79141;PMS5003;68550;-26.480;29.234;2023-04-24T02:13:52;6;6;
79141;PMS5003;68550;-26.480;29.234;2023-04-24T02:16:17;8;8;
79141;PMS5003;68550;-26.480;29.234;2023-04-24T02:18:42;5;5;
79141;PMS5003;68550;-26.480;29.234;2023-04-24T02:21:08;7;6;
79141;PMS5003;68550;-26.480;29.234;2023-04-24T02:23:34;4;4;
79141;PMS5003;68550;-26.480;29.234;2023-04-24T02:25:59;5;5;
79141;PMS5003;68550;-26.480;29.234;2023-04-24T02:28:24;6;6;
79141;PMS5003;68550;-26.480;29.234;2023-04-24T02:30:50;7;6;
79141;PMS5003;68550;-26.480;29.234;2023-04-24T02:33:15;6;6;
79141;PMS5003;68550;-26.480;29.234;2023-04-24T02:35:40;4;4;
79141;PMS5003;68550;-26.480;29.234;2023-04-24T02:38:06;6;6;
79141;PMS5003;68550;-26.480;29.234;2023-04-24T02:40:31;5;5;
79141;PMS5003;68550;-26.480;29.234;2023-04-24T02:42:56;6;5;
79141;PMS5003;68550;-26.480;29.234;2023-04-24T02:45:22;5;4;
79141;PMS5003;68550;-26.480;29.234;2023-04-24T02:47:47;4;4;
79141;PMS5003;68550;-26.480;29.234;2023-04-24T02:50:13;5;5;
79141;PMS5003;68550;-26.480;29.234;2023-04-24T02:52:38;4;4;
79141;PMS5003;68550;-26.480;29.234;2023-04-24T02:55:04;5;5;
79141;PMS5003;68550;-26.480;29.234;2023-04-24T02:57:31;4;4;
79141;PMS5003;68550;-26.480;29.234;2023-04-24T02:59:54;4;4;
79141;PMS5003;68550;-26.480;29.234;2023-04-24T03:02:20;5;5;
79141;PMS5003;68550;-26.480;29.234;2023-04-24T03:04:45;5;5;
79141;PMS5003;68550;-26.480;29.234;2023-04-24T03:07:11;5;5;
79141;PMS5003;68550;-26.480;29.234;2023-04-24T03:09:36;4;4;
79141;PMS5003;68550;-26.480;29.234;2023-04-24T03:12:02;4;4;
79141;PMS5003;68550;-26.480;29.234;2023-04-24T03:14:27;2;2;
79141;PMS5003;68550;-26.480;29.234;2023-04-24T03:16:54;3;2;
79141;PMS5003;68550;-26.480;29.234;2023-04-24T03:19:18;4;4;
79141;PMS5003;68550;-26.480;29.234;2023-04-24T03:21:43;3;3;
79141;PMS5003;68550;-26.480;29.234;2023-04-24T03:24:09;3;3;
79141;PMS5003;68550;-26.480;29.234;2023-04-24T03:26:34;5;5;
79141;PMS5003;68550;-26.480;29.234;2023-04-24T03:29:00;2;2;
79141;PMS5003;68550;-26.480;29.234;2023-04-24T03:31:25;3;3;
79141;PMS5003;68550;-26.480;29.234;2023-04-24T03:33:51;3;3;
79141;PMS5003;68550;-26.480;29.234;2023-04-24T03:36:16;3;3;
79141;PMS5003;68550;-26.480;29.234;2023-04-24T03:38:41;3;3;
79141;PMS5003;68550;-26.480;29.234;2023-04-24T03:41:07;3;3;
79141;PMS5003;68550;-26.480;29.234;2023-04-24T03:43:34;2;2;
79141;PMS5003;68550;-26.480;29.234;2023-04-24T03:45:58;3;3;
79141;PMS5003;68550;-26.480;29.234;2023-04-24T03:48:24;5;5;
79141;PMS5003;68550;-26.480;29.234;2023-04-24T03:50:49;3;3;
79141;PMS5003;68550;-26.480;29.234;2023-04-24T03:53:14;3;3;
79141;PMS5003;68550;-26.480;29.234;2023-04-24T03:55:39;2;2;
79141;PMS5003;68550;-26.480;29.234;2023-04-24T03:58:05;3;3;
79141;PMS5003;68550;-26.480;29.234;2023-04-24T04:00:30;4;4;
79141;PMS5003;68550;-26.480;29.234;2023-04-24T04:02:55;2;2;
79141;PMS5003;68550;-26.480;29.234;2023-04-24T04:05:21;1;1;
79141;PMS5003;68550;-26.480;29.234;2023-04-24T04:07:46;2;2;
79141;PMS5003;68550;-26.480;29.234;2023-04-24T04:10:12;2;2;
79141;PMS5003;68550;-26.480;29.234;2023-04-24T04:12:38;5;5;
79141;PMS5003;68550;-26.480;29.234;2023-04-24T04:15:03;4;4;
79141;PMS5003;68550;-26.480;29.234;2023-04-24T04:17:28;3;2;
79141;PMS5003;68550;-26.480;29.234;2023-04-24T04:19:54;5;4;
79141;PMS5003;68550;-26.480;29.234;2023-04-24T04:22:19;4;4;
79141;PMS5003;68550;-26.480;29.234;2023-04-24T04:24:45;5;3;
79141;PMS5003;68550;-26.480;29.234;2023-04-24T04:27:10;4;4;
79141;PMS5003;68550;-26.480;29.234;2023-04-24T04:29:35;3;3;
79141;PMS5003;68550;-26.480;29.234;2023-04-24T04:32:01;5;5;
79141;PMS5003;68550;-26.480;29.234;2023-04-24T04:34:26;4;4;
79141;PMS5003;68550;-26.480;29.234;2023-04-24T04:36:54;3;3;
79141;PMS5003;68550;-26.480;29.234;2023-04-24T04:39:18;5;4;
79141;PMS5003;68550;-26.480;29.234;2023-04-24T04:41:43;3;3;
79141;PMS5003;68550;-26.480;29.234;2023-04-24T04:44:08;4;3;
79141;PMS5003;68550;-26.480;29.234;2023-04-24T04:46:34;3;2;
79141;PMS5003;68550;-26.480;29.234;2023-04-24T04:48:59;4;4;
79141;PMS5003;68550;-26.480;29.234;2023-04-24T04:51:25;4;4;
79141;PMS5003;68550;-26.480;29.234;2023-04-24T04:53:50;2;2;
79141;PMS5003;68550;-26.480;29.234;2023-04-24T04:56:17;5;5;
79141;PMS5003;68550;-26.480;29.234;2023-04-24T04:58:41;4;4;
79141;PMS5003;68550;-26.480;29.234;2023-04-24T05:01:07;7;6;
79141;PMS5003;68550;-26.480;29.234;2023-04-24T05:03:32;4;4;
79141;PMS5003;68550;-26.480;29.234;2023-04-24T05:05:57;5;5;
79141;PMS5003;68550;-26.480;29.234;2023-04-24T05:08:23;7;6;
79141;PMS5003;68550;-26.480;29.234;2023-04-24T05:10:48;6;4;
79141;PMS5003;68550;-26.480;29.234;2023-04-24T05:13:14;3;3;
79141;PMS5003;68550;-26.480;29.234;2023-04-24T05:15:41;4;4;
79141;PMS5003;68550;-26.480;29.234;2023-04-24T05:18:05;6;5;
79141;PMS5003;68550;-26.480;29.234;2023-04-24T05:20:30;5;4;
79141;PMS5003;68550;-26.480;29.234;2023-04-24T05:22:56;3;3;
79141;PMS5003;68550;-26.480;29.234;2023-04-24T05:25:21;5;4;
79141;PMS5003;68550;-26.480;29.234;2023-04-24T05:27:46;3;3;
79141;PMS5003;68550;-26.480;29.234;2023-04-24T05:30:12;5;5;
79141;PMS5003;68550;-26.480;29.234;2023-04-24T05:32:37;10;10;
79141;PMS5003;68550;-26.480;29.234;2023-04-24T05:35:03;6;5;
79141;PMS5003;68550;-26.480;29.234;2023-04-24T05:37:28;6;6;
79141;PMS5003;68550;-26.480;29.234;2023-04-24T05:39:56;7;7;
79141;PMS5003;68550;-26.480;29.234;2023-04-24T05:42:19;8;7;
79141;PMS5003;68550;-26.480;29.234;2023-04-24T05:44:44;8;8;
79141;PMS5003;68550;-26.480;29.234;2023-04-24T05:47:10;8;7;
79141;PMS5003;68550;-26.480;29.234;2023-04-24T05:49:35;7;6;
79141;PMS5003;68550;-26.480;29.234;2023-04-24T05:52:02;5;5;
79141;PMS5003;68550;-26.480;29.234;2023-04-24T05:54:26;6;6;
79141;PMS5003;68550;-26.480;29.234;2023-04-24T05:56:51;5;5;
79141;PMS5003;68550;-26.480;29.234;2023-04-24T05:59:17;5;5;
79141;PMS5003;68550;-26.480;29.234;2023-04-24T06:01:42;8;6;
79141;PMS5003;68550;-26.480;29.234;2023-04-24T06:04:08;5;5;
79141;PMS5003;68550;-26.480;29.234;2023-04-24T06:06:33;8;8;
79141;PMS5003;68550;-26.480;29.234;2023-04-24T06:08:58;6;6;
79141;PMS5003;68550;-26.480;29.234;2023-04-24T06:11:24;9;9;
79141;PMS5003;68550;-26.480;29.234;2023-04-24T06:13:49;6;6;
79141;PMS5003;68550;-26.480;29.234;2023-04-24T06:16:15;6;5;
79141;PMS5003;68550;-26.480;29.234;2023-04-24T06:18:40;6;6;
79141;PMS5003;68550;-26.480;29.234;2023-04-24T06:21:06;7;7;
79141;PMS5003;68550;-26.480;29.234;2023-04-24T06:23:31;8;7;
79141;PMS5003;68550;-26.480;29.234;2023-04-24T06:25:56;9;8;
79141;PMS5003;68550;-26.480;29.234;2023-04-24T06:28:25;7;7;
79141;PMS5003;68550;-26.480;29.234;2023-04-24T06:30:47;10;8;
79141;PMS5003;68550;-26.480;29.234;2023-04-24T06:33:13;6;6;
79141;PMS5003;68550;-26.480;29.234;2023-04-24T06:35:38;8;8;
79141;PMS5003;68550;-26.480;29.234;2023-04-24T06:38:03;6;6;
79141;PMS5003;68550;-26.480;29.234;2023-04-24T06:40:29;8;8;
79141;PMS5003;68550;-26.480;29.234;2023-04-24T06:42:54;5;5;
79141;PMS5003;68550;-26.480;29.234;2023-04-24T06:45:19;6;6;
79141;PMS5003;68550;-26.480;29.234;2023-04-24T06:47:46;7;6;
79141;PMS5003;68550;-26.480;29.234;2023-04-24T06:50:10;6;6;
79141;PMS5003;68550;-26.480;29.234;2023-04-24T06:52:36;7;7;
79141;PMS5003;68550;-26.480;29.234;2023-04-24T06:55:01;4;4;
79141;PMS5003;68550;-26.480;29.234;2023-04-24T06:57:28;5;4;
79141;PMS5003;68550;-26.480;29.234;2023-04-24T06:59:52;8;8;
79141;PMS5003;68550;-26.480;29.234;2023-04-24T07:06:40;6;6;
79141;PMS5003;68550;-26.480;29.234;2023-04-24T07:09:08;8;8;
79141;PMS5003;68550;-26.480;29.234;2023-04-24T07:13:56;5;4;
79141;PMS5003;68550;-26.480;29.234;2023-04-24T07:16:22;7;7;
79141;PMS5003;68550;-26.480;29.234;2023-04-24T07:28:29;5;5;
79141;PMS5003;68550;-26.480;29.234;2023-04-24T07:40:38;4;4;
79141;PMS5003;68550;-26.480;29.234;2023-04-24T07:45:27;6;6;
79141;PMS5003;68550;-26.480;29.234;2023-04-24T07:47:52;4;4;
79141;PMS5003;68550;-26.480;29.234;2023-04-24T07:50:17;3;3;
79141;PMS5003;68550;-26.480;29.234;2023-04-24T07:52:44;6;6;
79141;PMS5003;68550;-26.480;29.234;2023-04-24T07:55:08;4;4;
79141;PMS5003;68550;-26.480;29.234;2023-04-24T07:57:34;6;6;
79141;PMS5003;68550;-26.480;29.234;2023-04-24T08:02:25;4;4;
79141;PMS5003;68550;-26.480;29.234;2023-04-24T08:04:50;4;4;
79141;PMS5003;68550;-26.480;29.234;2023-04-24T08:07:15;3;3;
79141;PMS5003;68550;-26.480;29.234;2023-04-24T08:09:41;4;4;
79141;PMS5003;68550;-26.480;29.234;2023-04-24T08:26:39;4;4;
79141;PMS5003;68550;-26.480;29.234;2023-04-24T08:29:04;3;3;
79141;PMS5003;68550;-26.480;29.234;2023-04-24T08:31:30;3;3;
79141;PMS5003;68550;-26.480;29.234;2023-04-24T08:38:56;4;4;
79141;PMS5003;68550;-26.480;29.234;2023-04-24T08:46:03;4;4;
79141;PMS5003;68550;-26.480;29.234;2023-04-24T08:53:20;3;3;
79141;PMS5003;68550;-26.480;29.234;2023-04-24T08:55:43;4;4;
79141;PMS5003;68550;-26.480;29.234;2023-04-24T08:58:09;4;3;
79141;PMS5003;68550;-26.480;29.234;2023-04-24T09:00:34;4;4;
79141;PMS5003;68550;-26.480;29.234;2023-04-24T09:03:13;0;0;
79141;PMS5003;68550;-26.480;29.234;2023-04-24T09:05:39;2;2;
79141;PMS5003;68550;-26.480;29.234;2023-04-24T09:08:03;4;4;
79141;PMS5003;68550;-26.480;29.234;2023-04-24T09:10:29;4;4;
79141;PMS5003;68550;-26.480;29.234;2023-04-24T09:12:54;3;3;
79141;PMS5003;68550;-26.480;29.234;2023-04-24T09:15:19;4;3;
79141;PMS5003;68550;-26.480;29.234;2023-04-24T09:17:45;4;4;
79141;PMS5003;68550;-26.480;29.234;2023-04-24T09:20:10;4;3;
79141;PMS5003;68550;-26.480;29.234;2023-04-24T09:22:36;3;3;
79141;PMS5003;68550;-26.480;29.234;2023-04-24T09:25:03;3;3;
79141;PMS5003;68550;-26.480;29.234;2023-04-24T09:27:27;3;2;
79141;PMS5003;68550;-26.480;29.234;2023-04-24T09:29:55;2;2;
79141;PMS5003;68550;-26.480;29.234;2023-04-24T09:32:19;3;3;
79141;PMS5003;68550;-26.480;29.234;2023-04-24T09:34:43;3;3;
79141;PMS5003;68550;-26.480;29.234;2023-04-24T09:37:08;1;1;
79141;PMS5003;68550;-26.480;29.234;2023-04-24T09:39:34;4;4;
79141;PMS5003;68550;-26.480;29.234;2023-04-24T09:41:59;3;2;
79141;PMS5003;68550;-26.480;29.234;2023-04-24T09:44:25;3;3;
79141;PMS5003;68550;-26.480;29.234;2023-04-24T09:46:53;4;4;
79141;PMS5003;68550;-26.480;29.234;2023-04-24T09:49:15;3;3;
79141;PMS5003;68550;-26.480;29.234;2023-04-24T09:51:40;3;3;
79141;PMS5003;68550;-26.480;29.234;2023-04-24T09:56:33;2;2;
79141;PMS5003;68550;-26.480;29.234;2023-04-24T10:03:47;3;3;
79141;PMS5003;68550;-26.480;29.234;2023-04-24T10:06:13;3;3;
79141;PMS5003;68550;-26.480;29.234;2023-04-24T10:08:38;1;1;
79141;PMS5003;68550;-26.480;29.234;2023-04-24T10:11:04;1;1;
79141;PMS5003;68550;-26.480;29.234;2023-04-24T10:13:31;3;3;
79141;PMS5003;68550;-26.480;29.234;2023-04-24T10:15:55;1;1;
79141;PMS5003;68550;-26.480;29.234;2023-04-24T10:18:20;2;2;
79141;PMS5003;68550;-26.480;29.234;2023-04-24T10:20:45;3;3;
79141;PMS5003;68550;-26.480;29.234;2023-04-24T10:23:10;1;1;
79141;PMS5003;68550;-26.480;29.234;2023-04-24T10:25:36;2;2;
79141;PMS5003;68550;-26.480;29.234;2023-04-24T10:28:04;2;2;
79141;PMS5003;68550;-26.480;29.234;2023-04-24T10:30:28;3;3;
79141;PMS5003;68550;-26.480;29.234;2023-04-24T10:32:52;2;2;
79141;PMS5003;68550;-26.480;29.234;2023-04-24T10:35:18;2;2;
79141;PMS5003;68550;-26.480;29.234;2023-04-24T10:37:44;2;2;
79141;PMS5003;68550;-26.480;29.234;2023-04-24T10:40:09;2;2;
79141;PMS5003;68550;-26.480;29.234;2023-04-24T10:42:34;2;2;
79141;PMS5003;68550;-26.480;29.234;2023-04-24T10:44:59;4;2;
79141;PMS5003;68550;-26.480;29.234;2023-04-24T10:47:25;3;3;
79141;PMS5003;68550;-26.480;29.234;2023-04-24T10:49:50;2;2;
79141;PMS5003;68550;-26.480;29.234;2023-04-24T10:52:19;1;1;
79141;PMS5003;68550;-26.480;29.234;2023-04-24T10:54:43;1;1;
79141;PMS5003;68550;-26.480;29.234;2023-04-24T10:59:34;2;2;
79141;PMS5003;68550;-26.480;29.234;2023-04-24T11:01:57;2;2;
79141;PMS5003;68550;-26.480;29.234;2023-04-24T11:04:29;2;2;
79141;PMS5003;68550;-26.480;29.234;2023-04-24T11:06:47;2;2;
79141;PMS5003;68550;-26.480;29.234;2023-04-24T11:09:14;2;2;
79141;PMS5003;68550;-26.480;29.234;2023-04-24T11:11:43;1;1;
79141;PMS5003;68550;-26.480;29.234;2023-04-24T11:14:05;2;2;
79141;PMS5003;68550;-26.480;29.234;2023-04-24T11:16:30;1;1;
79141;PMS5003;68550;-26.480;29.234;2023-04-24T11:19:00;2;2;
79141;PMS5003;68550;-26.480;29.234;2023-04-24T11:21:20;4;2;
79141;PMS5003;68550;-26.480;29.234;2023-04-24T11:23:46;2;2;
79141;PMS5003;68550;-26.480;29.234;2023-04-24T11:26:11;2;1;
79141;PMS5003;68550;-26.480;29.234;2023-04-24T11:28:36;3;3;
79141;PMS5003;68550;-26.480;29.234;2023-04-24T11:33:27;3;2;
79141;PMS5003;68550;-26.480;29.234;2023-04-24T11:35:52;3;3;
79141;PMS5003;68550;-26.480;29.234;2023-04-24T11:38:17;2;2;
79141;PMS5003;68550;-26.480;29.234;2023-04-24T11:40:43;2;2;
79141;PMS5003;68550;-26.480;29.234;2023-04-24T11:43:10;2;2;
79141;PMS5003;68550;-26.480;29.234;2023-04-24T11:45:34;2;2;
79141;PMS5003;68550;-26.480;29.234;2023-04-24T11:47:59;3;3;
79141;PMS5003;68550;-26.480;29.234;2023-04-24T11:50:25;3;3;
79141;PMS5003;68550;-26.480;29.234;2023-04-24T11:52:50;3;2;
79141;PMS5003;68550;-26.480;29.234;2023-04-24T11:55:24;3;3;
79141;PMS5003;68550;-26.480;29.234;2023-04-24T11:57:42;3;3;
79141;PMS5003;68550;-26.480;29.234;2023-04-24T12:00:07;3;3;
79141;PMS5003;68550;-26.480;29.234;2023-04-24T12:02:31;3;3;
79141;PMS5003;68550;-26.480;29.234;2023-04-24T12:04:57;2;2;
79141;PMS5003;68550;-26.480;29.234;2023-04-24T12:07:24;4;4;
79141;PMS5003;68550;-26.480;29.234;2023-04-24T12:09:49;2;2;
79141;PMS5003;68550;-26.480;29.234;2023-04-24T12:12:13;3;3;
79141;PMS5003;68550;-26.480;29.234;2023-04-24T12:14:42;3;3;
79141;PMS5003;68550;-26.480;29.234;2023-04-24T12:17:04;3;3;
79141;PMS5003;68550;-26.480;29.234;2023-04-24T12:19:31;4;4;
79141;PMS5003;68550;-26.480;29.234;2023-04-24T12:22:00;4;4;
79141;PMS5003;68550;-26.480;29.234;2023-04-24T12:24:20;4;4;
79141;PMS5003;68550;-26.480;29.234;2023-04-24T12:26:45;3;3;
79141;PMS5003;68550;-26.480;29.234;2023-04-24T12:29:11;4;4;
79141;PMS5003;68550;-26.480;29.234;2023-04-24T12:31:37;3;3;
79141;PMS5003;68550;-26.480;29.234;2023-04-24T12:34:01;3;3;
79141;PMS5003;68550;-26.480;29.234;2023-04-24T12:36:26;4;3;
79141;PMS5003;68550;-26.480;29.234;2023-04-24T12:38:52;4;4;
79141;PMS5003;68550;-26.480;29.234;2023-04-24T12:41:17;5;5;
79141;PMS5003;68550;-26.480;29.234;2023-04-24T12:43:51;3;3;
79141;PMS5003;68550;-26.480;29.234;2023-04-24T12:46:08;4;4;
79141;PMS5003;68550;-26.480;29.234;2023-04-24T12:48:34;4;3;
79141;PMS5003;68550;-26.480;29.234;2023-04-24T12:51:01;4;4;
79141;PMS5003;68550;-26.480;29.234;2023-04-24T12:53:24;3;2;
79141;PMS5003;68550;-26.480;29.234;2023-04-24T12:55:50;5;3;
79141;PMS5003;68550;-26.480;29.234;2023-04-24T12:58:15;3;3;
79141;PMS5003;68550;-26.480;29.234;2023-04-24T13:00:41;3;3;
79141;PMS5003;68550;-26.480;29.234;2023-04-24T13:03:07;4;3;
79141;PMS5003;68550;-26.480;29.234;2023-04-24T13:05:31;6;5;
79141;PMS5003;68550;-26.480;29.234;2023-04-24T13:07:59;5;4;
79141;PMS5003;68550;-26.480;29.234;2023-04-24T13:10:22;4;3;
79141;PMS5003;68550;-26.480;29.234;2023-04-24T13:12:48;8;8;
79141;PMS5003;68550;-26.480;29.234;2023-04-24T13:15:14;3;3;
79141;PMS5003;68550;-26.480;29.234;2023-04-24T13:17:38;4;3;
79141;PMS5003;68550;-26.480;29.234;2023-04-24T13:20:04;4;4;
79141;PMS5003;68550;-26.480;29.234;2023-04-24T13:22:29;5;5;
79141;PMS5003;68550;-26.480;29.234;2023-04-24T13:24:55;5;4;
79141;PMS5003;68550;-26.480;29.234;2023-04-24T13:27:20;5;4;
79141;PMS5003;68550;-26.480;29.234;2023-04-24T13:29:48;6;6;
79141;PMS5003;68550;-26.480;29.234;2023-04-24T13:32:11;4;4;
79141;PMS5003;68550;-26.480;29.234;2023-04-24T13:34:36;4;4;
79141;PMS5003;68550;-26.480;29.234;2023-04-24T13:37:02;3;2;
79141;PMS5003;68550;-26.480;29.234;2023-04-24T13:39:27;5;4;
79141;PMS5003;68550;-26.480;29.234;2023-04-24T13:41:53;5;4;
79141;PMS5003;68550;-26.480;29.234;2023-04-24T13:44:18;5;4;
79141;PMS5003;68550;-26.480;29.234;2023-04-24T13:46:44;5;4;
79141;PMS5003;68550;-26.480;29.234;2023-04-24T13:49:09;4;3;
79141;PMS5003;68550;-26.480;29.234;2023-04-24T13:51:34;4;4;
79141;PMS5003;68550;-26.480;29.234;2023-04-24T13:53:59;4;4;
79141;PMS5003;68550;-26.480;29.234;2023-04-24T13:56:25;5;4;
79141;PMS5003;68550;-26.480;29.234;2023-04-24T13:58:50;3;3;
79141;PMS5003;68550;-26.480;29.234;2023-04-24T14:01:15;4;4;
79141;PMS5003;68550;-26.480;29.234;2023-04-24T14:03:43;4;4;
79141;PMS5003;68550;-26.480;29.234;2023-04-24T14:06:06;6;5;
79141;PMS5003;68550;-26.480;29.234;2023-04-24T14:08:32;3;3;
79141;PMS5003;68550;-26.480;29.234;2023-04-24T14:10:57;3;3;
79141;PMS5003;68550;-26.480;29.234;2023-04-24T14:13:22;7;5;
79141;PMS5003;68550;-26.480;29.234;2023-04-24T14:15:48;7;5;
79141;PMS5003;68550;-26.480;29.234;2023-04-24T14:18:13;5;4;
79141;PMS5003;68550;-26.480;29.234;2023-04-24T14:20:39;4;4;
79141;PMS5003;68550;-26.480;29.234;2023-04-24T14:23:04;4;4;
79141;PMS5003;68550;-26.480;29.234;2023-04-24T14:25:29;4;4;
79141;PMS5003;68550;-26.480;29.234;2023-04-24T14:27:55;5;5;
79141;PMS5003;68550;-26.480;29.234;2023-04-24T14:30:20;3;3;
79141;PMS5003;68550;-26.480;29.234;2023-04-24T14:32:46;4;4;
79141;PMS5003;68550;-26.480;29.234;2023-04-24T14:35:11;6;6;
79141;PMS5003;68550;-26.480;29.234;2023-04-24T14:37:36;5;4;
79141;PMS5003;68550;-26.480;29.234;2023-04-24T14:40:04;5;5;
79141;PMS5003;68550;-26.480;29.234;2023-04-24T14:42:26;5;5;
79141;PMS5003;68550;-26.480;29.234;2023-04-24T14:44:52;3;3;
79141;PMS5003;68550;-26.480;29.234;2023-04-24T14:47:17;5;5;
79141;PMS5003;68550;-26.480;29.234;2023-04-24T14:49:43;5;4;
79141;PMS5003;68550;-26.480;29.234;2023-04-24T14:52:10;5;5;
79141;PMS5003;68550;-26.480;29.234;2023-04-24T14:54:33;4;4;
79141;PMS5003;68550;-26.480;29.234;2023-04-24T14:56:59;6;5;
79141;PMS5003;68550;-26.480;29.234;2023-04-24T14:59:24;4;4;
79141;PMS5003;68550;-26.480;29.234;2023-04-24T15:03:56;4;4;
79141;PMS5003;68550;-26.480;29.234;2023-04-24T15:06:21;5;5;
79141;PMS5003;68550;-26.480;29.234;2023-04-24T15:11:12;4;4;
79141;PMS5003;68550;-26.480;29.234;2023-04-24T15:13:37;3;3;
79141;PMS5003;68550;-26.480;29.234;2023-04-24T15:16:05;4;4;
79141;PMS5003;68550;-26.480;29.234;2023-04-24T15:18:28;4;4;
79141;PMS5003;68550;-26.480;29.234;2023-04-24T15:20:53;3;3;
79141;PMS5003;68550;-26.480;29.234;2023-04-24T15:25:44;6;5;
79141;PMS5003;68550;-26.480;29.234;2023-04-24T15:30:35;5;5;
79141;PMS5003;68550;-26.480;29.234;2023-04-24T15:35:31;4;4;
79141;PMS5003;68550;-26.480;29.234;2023-04-24T15:37:51;5;5;
79141;PMS5003;68550;-26.480;29.234;2023-04-24T15:40:16;6;6;
79141;PMS5003;68550;-26.480;29.234;2023-04-24T15:42:42;6;6;
79141;PMS5003;68550;-26.480;29.234;2023-04-24T15:45:08;5;5;
79141;PMS5003;68550;-26.480;29.234;2023-04-24T15:49:58;7;7;
79141;PMS5003;68550;-26.480;29.234;2023-04-24T15:52:23;7;7;
79141;PMS5003;68550;-26.480;29.234;2023-04-24T15:54:51;6;6;
79141;PMS5003;68550;-26.480;29.234;2023-04-24T15:57:14;8;8;
79141;PMS5003;68550;-26.480;29.234;2023-04-24T15:59:39;10;9;
79141;PMS5003;68550;-26.480;29.234;2023-04-24T16:14:12;22;21;
79141;PMS5003;68550;-26.480;29.234;2023-04-24T16:16:38;20;19;
79141;PMS5003;68550;-26.480;29.234;2023-04-24T16:19:05;18;17;
79141;PMS5003;68550;-26.480;29.234;2023-04-24T16:21:28;19;17;
79141;PMS5003;68550;-26.480;29.234;2023-04-24T16:23:54;17;15;
79141;PMS5003;68550;-26.480;29.234;2023-04-24T16:26:19;20;19;
79141;PMS5003;68550;-26.480;29.234;2023-04-24T16:33:36;97;97;
79141;PMS5003;68550;-26.480;29.234;2023-04-24T16:36:02;133;131;
79141;PMS5003;68550;-26.480;29.234;2023-04-24T16:38:27;134;133;
79141;PMS5003;68550;-26.480;29.234;2023-04-24T16:43:19;135;133;
79141;PMS5003;68550;-26.480;29.234;2023-04-24T16:45:44;123;123;
79141;PMS5003;68550;-26.480;29.234;2023-04-24T16:48:09;128;127;
79141;PMS5003;68550;-26.480;29.234;2023-04-24T16:50:35;121;120;
79141;PMS5003;68550;-26.480;29.234;2023-04-24T16:53:00;126;123;
79141;PMS5003;68550;-26.480;29.234;2023-04-24T16:57:52;118;117;
79141;PMS5003;68550;-26.480;29.234;2023-04-24T17:00:18;103;102;
79141;PMS5003;68550;-26.480;29.234;2023-04-24T17:02:43;103;98;
79141;PMS5003;68550;-26.480;29.234;2023-04-24T17:05:11;106;106;
79141;PMS5003;68550;-26.480;29.234;2023-04-24T17:07:44;95;94;
79141;PMS5003;68550;-26.480;29.234;2023-04-24T17:09:59;90;89;
79141;PMS5003;68550;-26.480;29.234;2023-04-24T17:12:29;85;85;
79141;PMS5003;68550;-26.480;29.234;2023-04-24T17:14:51;85;83;
79141;PMS5003;68550;-26.480;29.234;2023-04-24T17:19:42;84;82;
79141;PMS5003;68550;-26.480;29.234;2023-04-24T17:22:07;80;79;
79141;PMS5003;68550;-26.480;29.234;2023-04-24T17:24:33;89;89;
79141;PMS5003;68550;-26.480;29.234;2023-04-24T17:26:58;89;85;
79141;PMS5003;68550;-26.480;29.234;2023-04-24T17:29:23;76;75;
79141;PMS5003;68550;-26.480;29.234;2023-04-24T17:31:48;80;79;
79141;PMS5003;68550;-26.480;29.234;2023-04-24T17:36:40;76;74;
79141;PMS5003;68550;-26.480;29.234;2023-04-24T17:39:05;72;72;
79141;PMS5003;68550;-26.480;29.234;2023-04-24T17:41:30;74;74;
79141;PMS5003;68550;-26.480;29.234;2023-04-24T17:43:56;78;75;
79141;PMS5003;68550;-26.480;29.234;2023-04-24T17:46:26;67;66;
79141;PMS5003;68550;-26.480;29.234;2023-04-24T17:48:50;80;78;
79141;PMS5003;68550;-26.480;29.234;2023-04-24T17:51:12;84;82;
79141;PMS5003;68550;-26.480;29.234;2023-04-24T17:53:39;82;81;
79141;PMS5003;68550;-26.480;29.234;2023-04-24T17:56:03;80;80;
79141;PMS5003;68550;-26.480;29.234;2023-04-24T17:58:30;75;72;
79141;PMS5003;68550;-26.480;29.234;2023-04-24T18:00:53;76;76;
79141;PMS5003;68550;-26.480;29.234;2023-04-24T18:03:19;77;74;
79141;PMS5003;68550;-26.480;29.234;2023-04-24T18:08:18;74;74;
79141;PMS5003;68550;-26.480;29.234;2023-04-24T18:10:43;71;69;
79141;PMS5003;68550;-26.480;29.234;2023-04-24T18:13:01;66;64;
79141;PMS5003;68550;-26.480;29.234;2023-04-24T18:15:26;61;60;
79141;PMS5003;68550;-26.480;29.234;2023-04-24T18:20:17;57;57;
79141;PMS5003;68550;-26.480;29.234;2023-04-24T18:22:43;62;61;